sensor_id;sensor_type;location;lat;lon;timestamp;P1;durP1;ratioP1;P2;durP2;ratioP2
4290;SDS011;2159;50.906;7.152;2023-01-08T00:02:18;1.70;;;1.67;;
4290;SDS011;2159;50.906;7.152;2023-01-08T00:04:46;1.60;;;1.50;;
4290;SDS011;2159;50.906;7.152;2023-01-08T00:07:14;1.73;;;1.63;;
4290;SDS011;2159;50.906;7.152;2023-01-08T00:09:41;1.50;;;1.40;;
4290;SDS011;2159;50.906;7.152;2023-01-08T00:12:09;1.70;;;1.60;;
4290;SDS011;2159;50.906;7.152;2023-01-08T00:14:36;1.47;;;1.47;;
4290;SDS011;2159;50.906;7.152;2023-01-08T00:17:05;1.50;;;1.40;;
4290;SDS011;2159;50.906;7.152;2023-01-08T00:19:33;1.60;;;1.50;;
4290;SDS011;2159;50.906;7.152;2023-01-08T00:22:01;1.40;;;1.40;;
4290;SDS011;2159;50.906;7.152;2023-01-08T00:24:28;1.73;;;1.63;;
4290;SDS011;2159;50.906;7.152;2023-01-08T00:26:56;1.40;;;1.40;;
4290;SDS011;2159;50.906;7.152;2023-01-08T00:29:23;1.60;;;1.50;;
4290;SDS011;2159;50.906;7.152;2023-01-08T00:31:50;1.70;;;1.60;;
4290;SDS011;2159;50.906;7.152;2023-01-08T00:34:19;1.87;;;1.47;;
4290;SDS011;2159;50.906;7.152;2023-01-08T00:36:47;1.10;;;1.10;;
4290;SDS011;2159;50.906;7.152;2023-01-08T00:39:14;1.63;;;1.63;;
4290;SDS011;2159;50.906;7.152;2023-01-08T00:41:42;1.67;;;1.57;;
4290;SDS011;2159;50.906;7.152;2023-01-08T00:44:10;1.40;;;1.40;;
4290;SDS011;2159;50.906;7.152;2023-01-08T00:46:38;1.77;;;1.60;;
4290;SDS011;2159;50.906;7.152;2023-01-08T00:49:05;1.83;;;1.50;;
4290;SDS011;2159;50.906;7.152;2023-01-08T00:51:34;1.23;;;1.23;;
4290;SDS011;2159;50.906;7.152;2023-01-08T00:54:01;2.30;;;1.50;;
4290;SDS011;2159;50.906;7.152;2023-01-08T00:56:29;1.50;;;1.40;;
4290;SDS011;2159;50.906;7.152;2023-01-08T00:58:56;1.40;;;1.40;;
4290;SDS011;2159;50.906;7.152;2023-01-08T01:01:24;1.60;;;1.60;;
4290;SDS011;2159;50.906;7.152;2023-01-08T01:03:51;1.97;;;1.87;;
4290;SDS011;2159;50.906;7.152;2023-01-08T01:06:19;1.37;;;1.30;;
4290;SDS011;2159;50.906;7.152;2023-01-08T01:08:48;1.73;;;1.63;;
4290;SDS011;2159;50.906;7.152;2023-01-08T01:11:17;1.53;;;1.43;;
4290;SDS011;2159;50.906;7.152;2023-01-08T01:13:45;1.90;;;1.70;;
4290;SDS011;2159;50.906;7.152;2023-01-08T01:16:12;1.67;;;1.57;;
4290;SDS011;2159;50.906;7.152;2023-01-08T01:18:40;2.10;;;1.90;;
4290;SDS011;2159;50.906;7.152;2023-01-08T01:21:11;1.50;;;1.50;;
4290;SDS011;2159;50.906;7.152;2023-01-08T01:23:39;1.70;;;1.63;;
4290;SDS011;2159;50.906;7.152;2023-01-08T01:26:13;1.80;;;1.70;;
4290;SDS011;2159;50.906;7.152;2023-01-08T01:28:41;2.10;;;1.53;;
4290;SDS011;2159;50.906;7.152;2023-01-08T01:31:08;2.53;;;1.80;;
4290;SDS011;2159;50.906;7.152;2023-01-08T01:33:36;2.00;;;1.80;;
4290;SDS011;2159;50.906;7.152;2023-01-08T01:36:04;2.10;;;1.97;;
4290;SDS011;2159;50.906;7.152;2023-01-08T01:38:32;1.60;;;1.60;;
4290;SDS011;2159;50.906;7.152;2023-01-08T01:40:59;2.00;;;1.80;;
4290;SDS011;2159;50.906;7.152;2023-01-08T01:43:36;2.03;;;2.00;;
4290;SDS011;2159;50.906;7.152;2023-01-08T01:46:05;1.80;;;1.70;;
4290;SDS011;2159;50.906;7.152;2023-01-08T01:48:33;2.17;;;2.07;;
4290;SDS011;2159;50.906;7.152;2023-01-08T01:51:00;2.73;;;1.87;;
4290;SDS011;2159;50.906;7.152;2023-01-08T01:53:28;2.00;;;1.90;;
4290;SDS011;2159;50.906;7.152;2023-01-08T01:55:57;2.00;;;1.90;;
4290;SDS011;2159;50.906;7.152;2023-01-08T01:58:25;2.23;;;2.00;;
4290;SDS011;2159;50.906;7.152;2023-01-08T02:00:55;2.07;;;1.97;;
4290;SDS011;2159;50.906;7.152;2023-01-08T02:03:25;2.30;;;2.20;;
4290;SDS011;2159;50.906;7.152;2023-01-08T02:05:53;2.13;;;1.93;;
4290;SDS011;2159;50.906;7.152;2023-01-08T02:08:24;2.10;;;2.00;;
4290;SDS011;2159;50.906;7.152;2023-01-08T02:10:56;2.40;;;2.13;;
4290;SDS011;2159;50.906;7.152;2023-01-08T02:13:27;2.60;;;2.40;;
4290;SDS011;2159;50.906;7.152;2023-01-08T02:15:57;2.47;;;2.37;;
4290;SDS011;2159;50.906;7.152;2023-01-08T02:18:28;3.23;;;2.10;;
4290;SDS011;2159;50.906;7.152;2023-01-08T02:20:59;2.57;;;2.30;;
4290;SDS011;2159;50.906;7.152;2023-01-08T02:23:29;2.20;;;1.90;;
4290;SDS011;2159;50.906;7.152;2023-01-08T02:28:45;2.70;;;2.50;;
4290;SDS011;2159;50.906;7.152;2023-01-08T02:31:13;2.50;;;2.40;;
4290;SDS011;2159;50.906;7.152;2023-01-08T02:33:42;2.40;;;2.30;;
4290;SDS011;2159;50.906;7.152;2023-01-08T02:36:13;2.50;;;2.30;;
4290;SDS011;2159;50.906;7.152;2023-01-08T02:38:44;2.33;;;2.23;;
4290;SDS011;2159;50.906;7.152;2023-01-08T02:41:14;2.17;;;2.07;;
4290;SDS011;2159;50.906;7.152;2023-01-08T02:43:45;3.90;;;2.20;;
4290;SDS011;2159;50.906;7.152;2023-01-08T02:46:15;4.93;;;2.57;;
4290;SDS011;2159;50.906;7.152;2023-01-08T02:48:44;1.90;;;1.80;;
4290;SDS011;2159;50.906;7.152;2023-01-08T02:51:12;3.30;;;2.10;;
4290;SDS011;2159;50.906;7.152;2023-01-08T02:53:42;2.27;;;2.17;;
4290;SDS011;2159;50.906;7.152;2023-01-08T02:56:11;2.60;;;2.40;;
4290;SDS011;2159;50.906;7.152;2023-01-08T02:58:39;2.40;;;2.30;;
4290;SDS011;2159;50.906;7.152;2023-01-08T03:01:09;2.43;;;2.23;;
4290;SDS011;2159;50.906;7.152;2023-01-08T03:03:38;2.43;;;2.20;;
4290;SDS011;2159;50.906;7.152;2023-01-08T03:06:08;2.30;;;2.20;;
4290;SDS011;2159;50.906;7.152;2023-01-08T03:08:37;2.20;;;2.10;;
4290;SDS011;2159;50.906;7.152;2023-01-08T03:11:05;2.73;;;2.33;;
4290;SDS011;2159;50.906;7.152;2023-01-08T03:13:34;2.90;;;2.60;;
4290;SDS011;2159;50.906;7.152;2023-01-08T03:16:04;3.00;;;2.70;;
4290;SDS011;2159;50.906;7.152;2023-01-08T03:18:36;2.60;;;2.40;;
4290;SDS011;2159;50.906;7.152;2023-01-08T03:21:06;2.60;;;2.50;;
4290;SDS011;2159;50.906;7.152;2023-01-08T03:23:33;3.00;;;2.67;;
4290;SDS011;2159;50.906;7.152;2023-01-08T03:26:01;2.57;;;2.40;;
4290;SDS011;2159;50.906;7.152;2023-01-08T03:28:32;5.27;;;2.80;;
4290;SDS011;2159;50.906;7.152;2023-01-08T03:31:01;2.90;;;2.70;;
4290;SDS011;2159;50.906;7.152;2023-01-08T03:33:28;2.70;;;2.60;;
4290;SDS011;2159;50.906;7.152;2023-01-08T03:35:58;3.10;;;2.80;;
4290;SDS011;2159;50.906;7.152;2023-01-08T03:38:28;3.03;;;2.90;;
4290;SDS011;2159;50.906;7.152;2023-01-08T03:40:58;2.63;;;2.47;;
4290;SDS011;2159;50.906;7.152;2023-01-08T03:43:27;3.03;;;2.83;;
4290;SDS011;2159;50.906;7.152;2023-01-08T03:45:55;3.07;;;2.77;;
4290;SDS011;2159;50.906;7.152;2023-01-08T03:48:23;3.10;;;2.90;;
4290;SDS011;2159;50.906;7.152;2023-01-08T03:50:51;2.70;;;2.60;;
4290;SDS011;2159;50.906;7.152;2023-01-08T03:53:20;4.70;;;2.80;;
4290;SDS011;2159;50.906;7.152;2023-01-08T03:55:48;3.10;;;2.80;;
4290;SDS011;2159;50.906;7.152;2023-01-08T03:58:15;3.40;;;3.07;;
4290;SDS011;2159;50.906;7.152;2023-01-08T04:00:43;2.97;;;2.80;;
4290;SDS011;2159;50.906;7.152;2023-01-08T04:03:10;3.00;;;2.80;;
4290;SDS011;2159;50.906;7.152;2023-01-08T04:05:38;3.03;;;2.83;;
4290;SDS011;2159;50.906;7.152;2023-01-08T04:08:05;3.20;;;2.80;;
4290;SDS011;2159;50.906;7.152;2023-01-08T04:10:34;2.80;;;2.60;;
4290;SDS011;2159;50.906;7.152;2023-01-08T04:13:01;3.00;;;2.80;;
4290;SDS011;2159;50.906;7.152;2023-01-08T04:15:29;2.33;;;2.20;;
4290;SDS011;2159;50.906;7.152;2023-01-08T04:17:57;2.60;;;2.47;;
4290;SDS011;2159;50.906;7.152;2023-01-08T04:20:24;2.73;;;2.53;;
4290;SDS011;2159;50.906;7.152;2023-01-08T04:22:51;2.73;;;2.63;;
4290;SDS011;2159;50.906;7.152;2023-01-08T04:25:19;3.07;;;2.60;;
4290;SDS011;2159;50.906;7.152;2023-01-08T04:27:48;3.60;;;2.90;;
4290;SDS011;2159;50.906;7.152;2023-01-08T04:30:15;2.80;;;2.60;;
4290;SDS011;2159;50.906;7.152;2023-01-08T04:32:44;3.50;;;3.20;;
4290;SDS011;2159;50.906;7.152;2023-01-08T04:35:11;3.03;;;2.73;;
4290;SDS011;2159;50.906;7.152;2023-01-08T04:37:39;2.93;;;2.73;;
4290;SDS011;2159;50.906;7.152;2023-01-08T04:40:07;2.70;;;2.60;;
4290;SDS011;2159;50.906;7.152;2023-01-08T04:42:35;2.57;;;2.37;;
4290;SDS011;2159;50.906;7.152;2023-01-08T04:45:04;2.60;;;2.50;;
4290;SDS011;2159;50.906;7.152;2023-01-08T04:47:32;2.50;;;2.30;;
4290;SDS011;2159;50.906;7.152;2023-01-08T04:49:59;2.97;;;2.53;;
4290;SDS011;2159;50.906;7.152;2023-01-08T04:52:27;2.57;;;2.47;;
4290;SDS011;2159;50.906;7.152;2023-01-08T04:54:54;2.37;;;2.27;;
4290;SDS011;2159;50.906;7.152;2023-01-08T04:57:21;5.73;;;2.80;;
4290;SDS011;2159;50.906;7.152;2023-01-08T04:59:49;2.57;;;2.43;;
4290;SDS011;2159;50.906;7.152;2023-01-08T05:02:18;2.00;;;1.90;;
4290;SDS011;2159;50.906;7.152;2023-01-08T05:04:46;1.90;;;1.80;;
4290;SDS011;2159;50.906;7.152;2023-01-08T05:07:13;1.97;;;1.77;;
4290;SDS011;2159;50.906;7.152;2023-01-08T05:09:41;1.97;;;1.70;;
4290;SDS011;2159;50.906;7.152;2023-01-08T05:12:09;1.40;;;1.40;;
4290;SDS011;2159;50.906;7.152;2023-01-08T05:14:37;2.17;;;1.60;;
4290;SDS011;2159;50.906;7.152;2023-01-08T05:17:04;1.50;;;1.40;;
4290;SDS011;2159;50.906;7.152;2023-01-08T05:19:33;1.30;;;1.30;;
4290;SDS011;2159;50.906;7.152;2023-01-08T05:22:03;1.70;;;1.60;;
4290;SDS011;2159;50.906;7.152;2023-01-08T05:24:30;1.80;;;1.70;;
4290;SDS011;2159;50.906;7.152;2023-01-08T05:26:58;1.90;;;1.80;;
4290;SDS011;2159;50.906;7.152;2023-01-08T05:29:25;1.83;;;1.73;;
4290;SDS011;2159;50.906;7.152;2023-01-08T05:31:53;1.87;;;1.77;;
4290;SDS011;2159;50.906;7.152;2023-01-08T05:34:20;4.77;;;1.80;;
4290;SDS011;2159;50.906;7.152;2023-01-08T05:36:49;2.00;;;1.90;;
4290;SDS011;2159;50.906;7.152;2023-01-08T05:39:16;1.73;;;1.67;;
4290;SDS011;2159;50.906;7.152;2023-01-08T05:41:44;1.70;;;1.63;;
4290;SDS011;2159;50.906;7.152;2023-01-08T05:44:11;1.70;;;1.53;;
4290;SDS011;2159;50.906;7.152;2023-01-08T05:46:39;1.70;;;1.60;;
4290;SDS011;2159;50.906;7.152;2023-01-08T05:49:06;1.53;;;1.53;;
4290;SDS011;2159;50.906;7.152;2023-01-08T05:51:34;1.43;;;1.43;;
4290;SDS011;2159;50.906;7.152;2023-01-08T05:54:02;1.57;;;1.57;;
4290;SDS011;2159;50.906;7.152;2023-01-08T05:56:30;1.37;;;1.37;;
4290;SDS011;2159;50.906;7.152;2023-01-08T05:58:58;1.60;;;1.50;;
4290;SDS011;2159;50.906;7.152;2023-01-08T06:01:25;1.83;;;1.70;;
4290;SDS011;2159;50.906;7.152;2023-01-08T06:03:53;1.57;;;1.57;;
4290;SDS011;2159;50.906;7.152;2023-01-08T06:06:21;1.50;;;1.50;;
4290;SDS011;2159;50.906;7.152;2023-01-08T06:08:48;1.40;;;1.30;;
4290;SDS011;2159;50.906;7.152;2023-01-08T06:11:17;1.57;;;1.47;;
4290;SDS011;2159;50.906;7.152;2023-01-08T06:13:45;1.50;;;1.40;;
4290;SDS011;2159;50.906;7.152;2023-01-08T06:16:12;1.17;;;1.17;;
4290;SDS011;2159;50.906;7.152;2023-01-08T06:18:40;1.33;;;1.23;;
4290;SDS011;2159;50.906;7.152;2023-01-08T06:21:07;1.23;;;1.23;;
4290;SDS011;2159;50.906;7.152;2023-01-08T06:23:35;0.97;;;0.97;;
4290;SDS011;2159;50.906;7.152;2023-01-08T06:26:02;4.30;;;1.60;;
4290;SDS011;2159;50.906;7.152;2023-01-08T06:28:31;1.47;;;1.37;;
4290;SDS011;2159;50.906;7.152;2023-01-08T06:30:59;1.10;;;1.10;;
4290;SDS011;2159;50.906;7.152;2023-01-08T06:33:27;1.10;;;1.10;;
4290;SDS011;2159;50.906;7.152;2023-01-08T06:35:55;1.30;;;1.30;;
4290;SDS011;2159;50.906;7.152;2023-01-08T06:38:25;1.03;;;1.03;;
4290;SDS011;2159;50.906;7.152;2023-01-08T06:40:52;1.20;;;1.20;;
4290;SDS011;2159;50.906;7.152;2023-01-08T06:43:20;0.93;;;0.90;;
4290;SDS011;2159;50.906;7.152;2023-01-08T06:45:53;1.20;;;1.20;;
4290;SDS011;2159;50.906;7.152;2023-01-08T06:48:20;1.20;;;1.10;;
4290;SDS011;2159;50.906;7.152;2023-01-08T06:50:48;2.40;;;1.20;;
4290;SDS011;2159;50.906;7.152;2023-01-08T06:53:15;1.43;;;0.80;;
4290;SDS011;2159;50.906;7.152;2023-01-08T06:55:43;1.43;;;1.00;;
4290;SDS011;2159;50.906;7.152;2023-01-08T06:58:11;1.07;;;1.07;;
4290;SDS011;2159;50.906;7.152;2023-01-08T07:00:38;1.10;;;1.10;;
4290;SDS011;2159;50.906;7.152;2023-01-08T07:03:07;1.10;;;1.10;;
4290;SDS011;2159;50.906;7.152;2023-01-08T07:05:34;1.00;;;1.00;;
4290;SDS011;2159;50.906;7.152;2023-01-08T07:08:02;0.80;;;0.80;;
4290;SDS011;2159;50.906;7.152;2023-01-08T07:10:29;1.97;;;1.00;;
4290;SDS011;2159;50.906;7.152;2023-01-08T07:12:57;0.93;;;0.93;;
4290;SDS011;2159;50.906;7.152;2023-01-08T07:15:24;1.00;;;1.00;;
4290;SDS011;2159;50.906;7.152;2023-01-08T07:17:52;1.23;;;1.13;;
4290;SDS011;2159;50.906;7.152;2023-01-08T07:20:21;1.00;;;1.00;;
4290;SDS011;2159;50.906;7.152;2023-01-08T07:22:48;1.33;;;1.10;;
4290;SDS011;2159;50.906;7.152;2023-01-08T07:25:16;1.07;;;1.07;;
4290;SDS011;2159;50.906;7.152;2023-01-08T07:27:43;1.40;;;1.40;;
4290;SDS011;2159;50.906;7.152;2023-01-08T07:30:11;2.00;;;1.20;;
4290;SDS011;2159;50.906;7.152;2023-01-08T07:32:56;2.03;;;1.23;;
4290;SDS011;2159;50.906;7.152;2023-01-08T07:35:25;1.30;;;1.30;;
4290;SDS011;2159;50.906;7.152;2023-01-08T07:37:53;1.20;;;1.10;;
4290;SDS011;2159;50.906;7.152;2023-01-08T07:40:20;1.00;;;1.00;;
4290;SDS011;2159;50.906;7.152;2023-01-08T07:42:55;0.87;;;0.87;;
4290;SDS011;2159;50.906;7.152;2023-01-08T07:45:23;0.80;;;0.80;;
4290;SDS011;2159;50.906;7.152;2023-01-08T07:47:50;1.07;;;1.07;;
4290;SDS011;2159;50.906;7.152;2023-01-08T07:50:18;1.10;;;1.10;;
4290;SDS011;2159;50.906;7.152;2023-01-08T07:52:46;0.87;;;0.87;;
4290;SDS011;2159;50.906;7.152;2023-01-08T07:55:14;0.93;;;0.93;;
4290;SDS011;2159;50.906;7.152;2023-01-08T07:57:41;1.27;;;1.17;;
4290;SDS011;2159;50.906;7.152;2023-01-08T08:00:09;1.77;;;1.00;;
4290;SDS011;2159;50.906;7.152;2023-01-08T08:02:37;0.93;;;0.90;;
4290;SDS011;2159;50.906;7.152;2023-01-08T08:05:05;1.17;;;1.07;;
4290;SDS011;2159;50.906;7.152;2023-01-08T08:07:33;1.00;;;1.00;;
4290;SDS011;2159;50.906;7.152;2023-01-08T08:10:02;3.63;;;1.00;;
4290;SDS011;2159;50.906;7.152;2023-01-08T08:12:30;4.77;;;1.00;;
4290;SDS011;2159;50.906;7.152;2023-01-08T08:14:57;1.20;;;1.00;;
4290;SDS011;2159;50.906;7.152;2023-01-08T08:17:25;1.10;;;1.07;;
4290;SDS011;2159;50.906;7.152;2023-01-08T08:19:53;0.80;;;0.80;;
4290;SDS011;2159;50.906;7.152;2023-01-08T08:22:20;1.40;;;1.40;;
4290;SDS011;2159;50.906;7.152;2023-01-08T08:24:48;1.03;;;1.00;;
4290;SDS011;2159;50.906;7.152;2023-01-08T08:27:17;1.00;;;1.00;;
4290;SDS011;2159;50.906;7.152;2023-01-08T08:29:44;1.10;;;0.93;;
4290;SDS011;2159;50.906;7.152;2023-01-08T08:32:12;1.33;;;0.83;;
4290;SDS011;2159;50.906;7.152;2023-01-08T08:34:39;1.00;;;1.00;;
4290;SDS011;2159;50.906;7.152;2023-01-08T08:37:07;1.00;;;1.00;;
4290;SDS011;2159;50.906;7.152;2023-01-08T08:39:35;2.30;;;1.10;;
4290;SDS011;2159;50.906;7.152;2023-01-08T08:42:02;1.73;;;1.13;;
4290;SDS011;2159;50.906;7.152;2023-01-08T08:44:31;1.10;;;1.00;;
4290;SDS011;2159;50.906;7.152;2023-01-08T08:46:59;1.67;;;1.30;;
4290;SDS011;2159;50.906;7.152;2023-01-08T08:49:26;2.37;;;1.20;;
4290;SDS011;2159;50.906;7.152;2023-01-08T08:51:54;1.17;;;0.97;;
4290;SDS011;2159;50.906;7.152;2023-01-08T08:54:21;1.20;;;1.10;;
4290;SDS011;2159;50.906;7.152;2023-01-08T08:56:49;0.90;;;0.70;;
4290;SDS011;2159;50.906;7.152;2023-01-08T08:59:16;0.80;;;0.70;;
4290;SDS011;2159;50.906;7.152;2023-01-08T09:01:45;2.40;;;0.90;;
4290;SDS011;2159;50.906;7.152;2023-01-08T09:04:13;1.07;;;0.83;;
4290;SDS011;2159;50.906;7.152;2023-01-08T09:06:40;2.50;;;1.07;;
4290;SDS011;2159;50.906;7.152;2023-01-08T09:09:08;1.00;;;0.90;;
4290;SDS011;2159;50.906;7.152;2023-01-08T09:11:35;2.83;;;1.10;;
4290;SDS011;2159;50.906;7.152;2023-01-08T09:14:03;1.10;;;1.00;;
4290;SDS011;2159;50.906;7.152;2023-01-08T09:16:30;1.80;;;1.00;;
4290;SDS011;2159;50.906;7.152;2023-01-08T09:18:59;3.53;;;1.20;;
4290;SDS011;2159;50.906;7.152;2023-01-08T09:21:27;0.70;;;0.70;;
4290;SDS011;2159;50.906;7.152;2023-01-08T09:23:54;8.07;;;1.33;;
4290;SDS011;2159;50.906;7.152;2023-01-08T09:26:22;2.03;;;1.23;;
4290;SDS011;2159;50.906;7.152;2023-01-08T09:28:49;1.20;;;1.20;;
4290;SDS011;2159;50.906;7.152;2023-01-08T09:31:17;1.73;;;1.60;;
4290;SDS011;2159;50.906;7.152;2023-01-08T09:33:45;2.50;;;1.33;;
4290;SDS011;2159;50.906;7.152;2023-01-08T09:36:14;2.10;;;1.80;;
4290;SDS011;2159;50.906;7.152;2023-01-08T09:38:42;1.67;;;1.57;;
4290;SDS011;2159;50.906;7.152;2023-01-08T09:41:10;1.80;;;1.33;;
4290;SDS011;2159;50.906;7.152;2023-01-08T09:43:39;1.53;;;1.27;;
4290;SDS011;2159;50.906;7.152;2023-01-08T09:46:09;1.57;;;1.47;;
4290;SDS011;2159;50.906;7.152;2023-01-08T09:48:39;1.30;;;1.27;;
4290;SDS011;2159;50.906;7.152;2023-01-08T09:51:07;3.40;;;1.20;;
4290;SDS011;2159;50.906;7.152;2023-01-08T09:53:37;1.97;;;1.00;;
4290;SDS011;2159;50.906;7.152;2023-01-08T09:56:08;1.90;;;1.33;;
4290;SDS011;2159;50.906;7.152;2023-01-08T09:58:37;1.53;;;1.20;;
4290;SDS011;2159;50.906;7.152;2023-01-08T10:01:05;1.20;;;1.10;;
4290;SDS011;2159;50.906;7.152;2023-01-08T10:03:37;1.30;;;1.20;;
4290;SDS011;2159;50.906;7.152;2023-01-08T10:06:07;1.50;;;1.40;;
4290;SDS011;2159;50.906;7.152;2023-01-08T10:08:35;1.40;;;1.23;;
4290;SDS011;2159;50.906;7.152;2023-01-08T10:11:04;1.30;;;1.20;;
4290;SDS011;2159;50.906;7.152;2023-01-08T10:13:32;2.50;;;1.10;;
4290;SDS011;2159;50.906;7.152;2023-01-08T10:16:00;1.83;;;1.70;;
4290;SDS011;2159;50.906;7.152;2023-01-08T10:18:30;3.50;;;1.93;;
4290;SDS011;2159;50.906;7.152;2023-01-08T10:20:59;1.57;;;1.33;;
4290;SDS011;2159;50.906;7.152;2023-01-08T10:23:26;3.10;;;1.37;;
4290;SDS011;2159;50.906;7.152;2023-01-08T10:25:54;1.33;;;1.23;;
4290;SDS011;2159;50.906;7.152;2023-01-08T10:28:24;0.90;;;0.90;;
4290;SDS011;2159;50.906;7.152;2023-01-08T10:30:52;1.30;;;1.20;;
4290;SDS011;2159;50.906;7.152;2023-01-08T10:33:20;1.17;;;1.00;;
4290;SDS011;2159;50.906;7.152;2023-01-08T10:35:50;4.80;;;1.20;;
4290;SDS011;2159;50.906;7.152;2023-01-08T10:38:22;1.20;;;1.10;;
4290;SDS011;2159;50.906;7.152;2023-01-08T10:40:50;1.20;;;1.10;;
4290;SDS011;2159;50.906;7.152;2023-01-08T10:43:19;1.40;;;1.10;;
4290;SDS011;2159;50.906;7.152;2023-01-08T10:45:54;1.47;;;1.10;;
4290;SDS011;2159;50.906;7.152;2023-01-08T10:48:22;3.90;;;1.10;;
4290;SDS011;2159;50.906;7.152;2023-01-08T10:50:51;1.00;;;1.00;;
4290;SDS011;2159;50.906;7.152;2023-01-08T10:53:32;2.30;;;1.10;;
4290;SDS011;2159;50.906;7.152;2023-01-08T10:56:00;1.67;;;1.30;;
4290;SDS011;2159;50.906;7.152;2023-01-08T10:58:28;4.03;;;1.20;;
4290;SDS011;2159;50.906;7.152;2023-01-08T11:01:08;2.83;;;1.30;;
4290;SDS011;2159;50.906;7.152;2023-01-08T11:03:36;1.40;;;1.30;;
4290;SDS011;2159;50.906;7.152;2023-01-08T11:06:11;1.70;;;1.23;;
4290;SDS011;2159;50.906;7.152;2023-01-08T11:08:38;2.50;;;1.20;;
4290;SDS011;2159;50.906;7.152;2023-01-08T11:11:06;1.33;;;1.23;;
4290;SDS011;2159;50.906;7.152;2023-01-08T11:13:34;3.00;;;1.20;;
4290;SDS011;2159;50.906;7.152;2023-01-08T11:16:02;1.50;;;1.40;;
4290;SDS011;2159;50.906;7.152;2023-01-08T11:25:30;2.67;;;1.23;;
4290;SDS011;2159;50.906;7.152;2023-01-08T11:27:57;1.27;;;1.20;;
4290;SDS011;2159;50.906;7.152;2023-01-08T11:30:26;1.93;;;1.20;;
4290;SDS011;2159;50.906;7.152;2023-01-08T11:32:59;3.00;;;1.30;;
4290;SDS011;2159;50.906;7.152;2023-01-08T11:35:30;2.30;;;1.30;;
4290;SDS011;2159;50.906;7.152;2023-01-08T11:37:59;1.40;;;1.30;;
4290;SDS011;2159;50.906;7.152;2023-01-08T11:40:31;1.10;;;1.10;;
4290;SDS011;2159;50.906;7.152;2023-01-08T11:43:05;1.30;;;1.20;;
4290;SDS011;2159;50.906;7.152;2023-01-08T11:45:38;1.40;;;1.33;;
4290;SDS011;2159;50.906;7.152;2023-01-08T11:48:16;1.67;;;1.20;;
4290;SDS011;2159;50.906;7.152;2023-01-08T11:50:48;1.30;;;1.20;;
4290;SDS011;2159;50.906;7.152;2023-01-08T11:53:21;1.50;;;1.20;;
4290;SDS011;2159;50.906;7.152;2023-01-08T11:55:54;1.10;;;1.10;;
4290;SDS011;2159;50.906;7.152;2023-01-08T11:58:29;2.70;;;1.03;;
4290;SDS011;2159;50.906;7.152;2023-01-08T12:01:12;1.43;;;1.10;;
4290;SDS011;2159;50.906;7.152;2023-01-08T12:03:44;1.60;;;0.93;;
4290;SDS011;2159;50.906;7.152;2023-01-08T12:06:17;1.03;;;1.03;;
4290;SDS011;2159;50.906;7.152;2023-01-08T12:08:48;1.10;;;1.00;;
4290;SDS011;2159;50.906;7.152;2023-01-08T12:11:22;1.43;;;1.23;;
4290;SDS011;2159;50.906;7.152;2023-01-08T12:16:38;1.00;;;0.90;;
4290;SDS011;2159;50.906;7.152;2023-01-08T12:19:14;1.03;;;0.90;;
4290;SDS011;2159;50.906;7.152;2023-01-08T12:21:46;0.77;;;0.77;;
4290;SDS011;2159;50.906;7.152;2023-01-08T12:24:20;0.87;;;0.87;;
4290;SDS011;2159;50.906;7.152;2023-01-08T12:26:52;0.90;;;0.90;;
4290;SDS011;2159;50.906;7.152;2023-01-08T12:29:31;3.57;;;0.97;;
4290;SDS011;2159;50.906;7.152;2023-01-08T12:32:15;1.33;;;0.80;;
4290;SDS011;2159;50.906;7.152;2023-01-08T12:34:46;0.80;;;0.80;;
4290;SDS011;2159;50.906;7.152;2023-01-08T12:37:17;1.13;;;1.00;;
4290;SDS011;2159;50.906;7.152;2023-01-08T12:39:49;1.10;;;1.10;;
4290;SDS011;2159;50.906;7.152;2023-01-08T12:42:20;0.80;;;0.73;;
4290;SDS011;2159;50.906;7.152;2023-01-08T12:44:50;1.47;;;0.90;;
4290;SDS011;2159;50.906;7.152;2023-01-08T12:47:21;0.80;;;0.80;;
4290;SDS011;2159;50.906;7.152;2023-01-08T12:49:53;1.27;;;0.90;;
4290;SDS011;2159;50.906;7.152;2023-01-08T12:52:24;1.03;;;0.93;;
4290;SDS011;2159;50.906;7.152;2023-01-08T12:54:54;0.90;;;0.80;;
4290;SDS011;2159;50.906;7.152;2023-01-08T12:57:26;1.43;;;0.90;;
4290;SDS011;2159;50.906;7.152;2023-01-08T12:59:59;1.03;;;0.93;;
4290;SDS011;2159;50.906;7.152;2023-01-08T13:02:31;1.13;;;0.97;;
4290;SDS011;2159;50.906;7.152;2023-01-08T13:05:09;1.10;;;0.93;;
4290;SDS011;2159;50.906;7.152;2023-01-08T13:07:37;0.93;;;0.93;;
4290;SDS011;2159;50.906;7.152;2023-01-08T13:10:18;1.80;;;0.90;;
4290;SDS011;2159;50.906;7.152;2023-01-08T13:12:50;1.23;;;1.23;;
4290;SDS011;2159;50.906;7.152;2023-01-08T13:15:19;2.33;;;1.20;;
4290;SDS011;2159;50.906;7.152;2023-01-08T13:17:47;1.90;;;1.13;;
4290;SDS011;2159;50.906;7.152;2023-01-08T13:20:19;1.53;;;1.13;;
4290;SDS011;2159;50.906;7.152;2023-01-08T13:22:50;0.70;;;0.70;;
4290;SDS011;2159;50.906;7.152;2023-01-08T13:25:26;2.50;;;0.80;;
4290;SDS011;2159;50.906;7.152;2023-01-08T13:27:55;2.60;;;0.80;;
4290;SDS011;2159;50.906;7.152;2023-01-08T13:30:34;0.80;;;0.80;;
4290;SDS011;2159;50.906;7.152;2023-01-08T13:35:45;1.63;;;1.00;;
4290;SDS011;2159;50.906;7.152;2023-01-08T13:38:13;2.50;;;0.97;;
4290;SDS011;2159;50.906;7.152;2023-01-08T13:40:53;0.80;;;0.80;;
4290;SDS011;2159;50.906;7.152;2023-01-08T13:43:23;0.80;;;0.80;;
4290;SDS011;2159;50.906;7.152;2023-01-08T13:46:02;0.90;;;0.90;;
4290;SDS011;2159;50.906;7.152;2023-01-08T13:48:35;0.80;;;0.80;;
4290;SDS011;2159;50.906;7.152;2023-01-08T13:51:03;0.90;;;0.90;;
4290;SDS011;2159;50.906;7.152;2023-01-08T13:53:31;0.90;;;0.90;;
4290;SDS011;2159;50.906;7.152;2023-01-08T13:55:59;1.17;;;1.00;;
4290;SDS011;2159;50.906;7.152;2023-01-08T13:58:31;1.43;;;1.33;;
4290;SDS011;2159;50.906;7.152;2023-01-08T14:00:59;1.50;;;1.40;;
4290;SDS011;2159;50.906;7.152;2023-01-08T14:03:29;1.30;;;1.20;;
4290;SDS011;2159;50.906;7.152;2023-01-08T14:06:06;0.70;;;0.70;;
4290;SDS011;2159;50.906;7.152;2023-01-08T14:08:34;1.00;;;1.00;;
4290;SDS011;2159;50.906;7.152;2023-01-08T14:11:02;0.90;;;0.90;;
4290;SDS011;2159;50.906;7.152;2023-01-08T14:13:32;0.80;;;0.80;;
4290;SDS011;2159;50.906;7.152;2023-01-08T14:16:01;1.50;;;0.73;;
4290;SDS011;2159;50.906;7.152;2023-01-08T14:18:29;0.80;;;0.80;;
4290;SDS011;2159;50.906;7.152;2023-01-08T14:20:56;1.47;;;0.70;;
4290;SDS011;2159;50.906;7.152;2023-01-08T14:23:25;3.67;;;2.97;;
4290;SDS011;2159;50.906;7.152;2023-01-08T14:25:53;1.73;;;1.10;;
4290;SDS011;2159;50.906;7.152;2023-01-08T14:28:21;12.30;;;0.90;;
4290;SDS011;2159;50.906;7.152;2023-01-08T14:30:50;2.20;;;0.80;;
4290;SDS011;2159;50.906;7.152;2023-01-08T14:33:19;0.70;;;0.70;;
4290;SDS011;2159;50.906;7.152;2023-01-08T14:35:47;0.80;;;0.80;;
4290;SDS011;2159;50.906;7.152;2023-01-08T14:38:16;0.80;;;0.80;;
4290;SDS011;2159;50.906;7.152;2023-01-08T14:40:44;0.93;;;0.83;;
4290;SDS011;2159;50.906;7.152;2023-01-08T14:43:14;1.07;;;0.97;;
4290;SDS011;2159;50.906;7.152;2023-01-08T14:45:44;1.40;;;1.30;;
4290;SDS011;2159;50.906;7.152;2023-01-08T14:48:16;1.93;;;0.93;;
4290;SDS011;2159;50.906;7.152;2023-01-08T14:50:49;0.60;;;0.60;;
4290;SDS011;2159;50.906;7.152;2023-01-08T14:53:21;0.60;;;0.60;;
4290;SDS011;2159;50.906;7.152;2023-01-08T14:55:50;0.80;;;0.80;;
4290;SDS011;2159;50.906;7.152;2023-01-08T14:58:19;1.03;;;0.67;;
4290;SDS011;2159;50.906;7.152;2023-01-08T15:00:49;0.73;;;0.73;;
4290;SDS011;2159;50.906;7.152;2023-01-08T15:03:29;0.97;;;0.97;;
4290;SDS011;2159;50.906;7.152;2023-01-08T15:05:57;2.40;;;0.70;;
4290;SDS011;2159;50.906;7.152;2023-01-08T15:08:26;1.13;;;0.70;;
4290;SDS011;2159;50.906;7.152;2023-01-08T15:10:57;0.60;;;0.60;;
4290;SDS011;2159;50.906;7.152;2023-01-08T15:13:28;2.27;;;0.90;;
4290;SDS011;2159;50.906;7.152;2023-01-08T15:15:57;0.80;;;0.70;;
4290;SDS011;2159;50.906;7.152;2023-01-08T15:18:25;0.60;;;0.60;;
4290;SDS011;2159;50.906;7.152;2023-01-08T15:20:54;0.60;;;0.60;;
4290;SDS011;2159;50.906;7.152;2023-01-08T15:23:23;1.73;;;0.70;;
4290;SDS011;2159;50.906;7.152;2023-01-08T15:25:53;0.90;;;0.70;;
4290;SDS011;2159;50.906;7.152;2023-01-08T15:28:20;1.60;;;0.90;;
4290;SDS011;2159;50.906;7.152;2023-01-08T15:30:48;0.90;;;0.77;;
4290;SDS011;2159;50.906;7.152;2023-01-08T15:33:17;0.73;;;0.73;;
4290;SDS011;2159;50.906;7.152;2023-01-08T15:35:45;1.00;;;1.00;;
4290;SDS011;2159;50.906;7.152;2023-01-08T15:38:14;1.20;;;1.10;;
4290;SDS011;2159;50.906;7.152;2023-01-08T15:40:42;1.60;;;1.50;;
4290;SDS011;2159;50.906;7.152;2023-01-08T15:43:11;1.00;;;1.00;;